sensor_id;sensor_type;location;lat;lon;timestamp;temperature;humidity
73750;SHT30;62058;48.406;-4.514;2023-06-22T00:01:22;19.84;74.40
73750;SHT30;62058;48.406;-4.514;2023-06-22T00:03:50;19.78;75.05
73750;SHT30;62058;48.406;-4.514;2023-06-22T00:06:18;19.75;75.49
73750;SHT30;62058;48.406;-4.514;2023-06-22T00:08:51;19.74;74.33
73750;SHT30;62058;48.406;-4.514;2023-06-22T00:11:20;19.71;74.74
73750;SHT30;62058;48.406;-4.514;2023-06-22T00:13:51;19.70;72.70
73750;SHT30;62058;48.406;-4.514;2023-06-22T00:16:20;19.65;73.36
73750;SHT30;62058;48.406;-4.514;2023-06-22T00:18:48;19.65;72.81
73750;SHT30;62058;48.406;-4.514;2023-06-22T00:21:14;19.54;75.24
73750;SHT30;62058;48.406;-4.514;2023-06-22T00:23:42;19.47;75.71
73750;SHT30;62058;48.406;-4.514;2023-06-22T00:26:11;19.43;73.87
73750;SHT30;62058;48.406;-4.514;2023-06-22T00:28:43;19.44;76.42
73750;SHT30;62058;48.406;-4.514;2023-06-22T00:31:14;19.35;76.17
73750;SHT30;62058;48.406;-4.514;2023-06-22T00:33:46;19.28;75.97
73750;SHT30;62058;48.406;-4.514;2023-06-22T00:36:12;19.31;74.98
73750;SHT30;62058;48.406;-4.514;2023-06-22T00:38:46;19.33;74.81
73750;SHT30;62058;48.406;-4.514;2023-06-22T00:41:25;19.31;75.13
73750;SHT30;62058;48.406;-4.514;2023-06-22T00:43:54;19.30;76.19
73750;SHT30;62058;48.406;-4.514;2023-06-22T00:46:25;19.27;75.90
73750;SHT30;62058;48.406;-4.514;2023-06-22T00:48:51;19.26;76.15
73750;SHT30;62058;48.406;-4.514;2023-06-22T00:51:30;19.19;76.44
73750;SHT30;62058;48.406;-4.514;2023-06-22T00:53:58;19.17;74.53
73750;SHT30;62058;48.406;-4.514;2023-06-22T00:56:32;19.10;75.84
73750;SHT30;62058;48.406;-4.514;2023-06-22T00:58:59;19.12;74.71
73750;SHT30;62058;48.406;-4.514;2023-06-22T01:01:28;19.09;75.90
73750;SHT30;62058;48.406;-4.514;2023-06-22T01:03:53;19.06;76.59
73750;SHT30;62058;48.406;-4.514;2023-06-22T01:06:35;19.02;75.34
73750;SHT30;62058;48.406;-4.514;2023-06-22T01:09:12;19.04;76.80
73750;SHT30;62058;48.406;-4.514;2023-06-22T01:11:51;18.98;76.96
73750;SHT30;62058;48.406;-4.514;2023-06-22T01:14:26;18.93;76.39
73750;SHT30;62058;48.406;-4.514;2023-06-22T01:16:56;18.96;76.50
73750;SHT30;62058;48.406;-4.514;2023-06-22T01:19:38;18.92;76.90
73750;SHT30;62058;48.406;-4.514;2023-06-22T01:22:08;18.89;77.23
73750;SHT30;62058;48.406;-4.514;2023-06-22T01:25:10;18.85;77.42
73750;SHT30;62058;48.406;-4.514;2023-06-22T01:28:04;18.80;77.15
73750;SHT30;62058;48.406;-4.514;2023-06-22T01:30:34;18.79;75.82
73750;SHT30;62058;48.406;-4.514;2023-06-22T01:33:02;18.75;75.39
73750;SHT30;62058;48.406;-4.514;2023-06-22T01:35:32;18.73;75.59
73750;SHT30;62058;48.406;-4.514;2023-06-22T01:37:58;18.69;77.13
73750;SHT30;62058;48.406;-4.514;2023-06-22T01:40:24;18.63;76.92
73750;SHT30;62058;48.406;-4.514;2023-06-22T01:42:51;18.59;75.27
73750;SHT30;62058;48.406;-4.514;2023-06-22T01:45:23;18.62;76.33
73750;SHT30;62058;48.406;-4.514;2023-06-22T01:47:52;18.58;76.49
73750;SHT30;62058;48.406;-4.514;2023-06-22T01:50:21;18.51;77.26
73750;SHT30;62058;48.406;-4.514;2023-06-22T01:52:52;18.48;77.10
73750;SHT30;62058;48.406;-4.514;2023-06-22T01:55:20;18.47;77.92
73750;SHT30;62058;48.406;-4.514;2023-06-22T01:57:49;18.42;77.87
73750;SHT30;62058;48.406;-4.514;2023-06-22T02:00:19;18.37;77.95
73750;SHT30;62058;48.406;-4.514;2023-06-22T02:03:13;18.39;78.63
73750;SHT30;62058;48.406;-4.514;2023-06-22T02:06:16;18.38;77.86
73750;SHT30;62058;48.406;-4.514;2023-06-22T02:08:51;18.34;78.00
73750;SHT30;62058;48.406;-4.514;2023-06-22T02:11:18;18.32;78.56
73750;SHT30;62058;48.406;-4.514;2023-06-22T02:13:48;18.29;78.14
73750;SHT30;62058;48.406;-4.514;2023-06-22T02:16:16;18.31;78.53
73750;SHT30;62058;48.406;-4.514;2023-06-22T02:18:50;18.31;78.65
73750;SHT30;62058;48.406;-4.514;2023-06-22T02:21:18;18.28;77.03
73750;SHT30;62058;48.406;-4.514;2023-06-22T02:23:44;18.28;77.68
73750;SHT30;62058;48.406;-4.514;2023-06-22T02:26:21;18.25;78.26
73750;SHT30;62058;48.406;-4.514;2023-06-22T02:28:50;18.22;78.22
73750;SHT30;62058;48.406;-4.514;2023-06-22T02:31:16;18.19;76.62
73750;SHT30;62058;48.406;-4.514;2023-06-22T02:33:48;18.17;78.80
73750;SHT30;62058;48.406;-4.514;2023-06-22T02:36:27;18.10;78.68
73750;SHT30;62058;48.406;-4.514;2023-06-22T02:38:55;18.07;78.25
73750;SHT30;62058;48.406;-4.514;2023-06-22T02:41:27;18.07;77.39
73750;SHT30;62058;48.406;-4.514;2023-06-22T02:43:56;18.04;78.46
73750;SHT30;62058;48.406;-4.514;2023-06-22T02:46:24;17.97;78.29
73750;SHT30;62058;48.406;-4.514;2023-06-22T02:48:52;17.97;77.51
73750;SHT30;62058;48.406;-4.514;2023-06-22T02:51:21;17.94;78.23
73750;SHT30;62058;48.406;-4.514;2023-06-22T02:53:49;17.91;78.15
73750;SHT30;62058;48.406;-4.514;2023-06-22T02:56:17;17.93;77.64
73750;SHT30;62058;48.406;-4.514;2023-06-22T02:58:43;17.90;78.80
73750;SHT30;62058;48.406;-4.514;2023-06-22T03:01:11;17.87;79.11
73750;SHT30;62058;48.406;-4.514;2023-06-22T03:03:44;17.84;77.88
73750;SHT30;62058;48.406;-4.514;2023-06-22T03:06:21;17.81;78.88
73750;SHT30;62058;48.406;-4.514;2023-06-22T03:09:02;17.77;78.96
73750;SHT30;62058;48.406;-4.514;2023-06-22T03:11:34;17.78;77.77
73750;SHT30;62058;48.406;-4.514;2023-06-22T03:14:02;17.74;79.22
73750;SHT30;62058;48.406;-4.514;2023-06-22T03:16:30;17.74;77.87
73750;SHT30;62058;48.406;-4.514;2023-06-22T03:18:58;17.66;79.73
73750;SHT30;62058;48.406;-4.514;2023-06-22T03:21:30;17.67;77.79
73750;SHT30;62058;48.406;-4.514;2023-06-22T03:24:01;17.66;78.84
73750;SHT30;62058;48.406;-4.514;2023-06-22T03:26:27;17.60;79.69
73750;SHT30;62058;48.406;-4.514;2023-06-22T03:28:58;17.54;80.56
73750;SHT30;62058;48.406;-4.514;2023-06-22T03:31:24;17.54;78.16
73750;SHT30;62058;48.406;-4.514;2023-06-22T03:34:05;17.59;78.89
73750;SHT30;62058;48.406;-4.514;2023-06-22T03:36:30;17.60;79.03
73750;SHT30;62058;48.406;-4.514;2023-06-22T03:39:06;17.66;79.53
73750;SHT30;62058;48.406;-4.514;2023-06-22T03:41:32;17.74;78.93
73750;SHT30;62058;48.406;-4.514;2023-06-22T03:44:03;17.78;79.90
73750;SHT30;62058;48.406;-4.514;2023-06-22T03:46:35;17.83;78.56
73750;SHT30;62058;48.406;-4.514;2023-06-22T03:49:11;17.87;77.44
73750;SHT30;62058;48.406;-4.514;2023-06-22T03:51:51;17.84;78.51
73750;SHT30;62058;48.406;-4.514;2023-06-22T03:54:27;17.84;79.56
73750;SHT30;62058;48.406;-4.514;2023-06-22T03:56:56;17.83;78.02
73750;SHT30;62058;48.406;-4.514;2023-06-22T03:59:25;17.86;77.94
73750;SHT30;62058;48.406;-4.514;2023-06-22T04:01:51;17.86;78.12
73750;SHT30;62058;48.406;-4.514;2023-06-22T04:04:20;17.84;78.24
73750;SHT30;62058;48.406;-4.514;2023-06-22T04:06:51;17.84;78.86
73750;SHT30;62058;48.406;-4.514;2023-06-22T04:09:22;17.77;78.74
73750;SHT30;62058;48.406;-4.514;2023-06-22T04:11:50;17.74;79.84
73750;SHT30;62058;48.406;-4.514;2023-06-22T04:14:19;17.69;80.45
73750;SHT30;62058;48.406;-4.514;2023-06-22T04:16:45;17.70;80.65
73750;SHT30;62058;48.406;-4.514;2023-06-22T04:19:10;17.70;81.17
73750;SHT30;62058;48.406;-4.514;2023-06-22T04:21:45;17.70;79.91
73750;SHT30;62058;48.406;-4.514;2023-06-22T04:24:28;17.78;79.85
73750;SHT30;62058;48.406;-4.514;2023-06-22T04:27:14;17.80;81.00
73750;SHT30;62058;48.406;-4.514;2023-06-22T04:29:43;17.83;81.19
73750;SHT30;62058;48.406;-4.514;2023-06-22T04:32:16;17.83;81.34
73750;SHT30;62058;48.406;-4.514;2023-06-22T04:34:47;17.84;80.20
73750;SHT30;62058;48.406;-4.514;2023-06-22T04:37:15;17.87;79.93
73750;SHT30;62058;48.406;-4.514;2023-06-22T04:39:42;17.94;80.84
73750;SHT30;62058;48.406;-4.514;2023-06-22T04:42:29;18.00;80.63
73750;SHT30;62058;48.406;-4.514;2023-06-22T04:45:40;18.05;80.04
73750;SHT30;62058;48.406;-4.514;2023-06-22T04:51:29;18.15;80.65
73750;SHT30;62058;48.406;-4.514;2023-06-22T04:54:11;18.18;80.05
73750;SHT30;62058;48.406;-4.514;2023-06-22T04:57:21;18.25;79.17
73750;SHT30;62058;48.406;-4.514;2023-06-22T05:03:35;18.35;80.04
73750;SHT30;62058;48.406;-4.514;2023-06-22T05:06:08;18.35;79.04
73750;SHT30;62058;48.406;-4.514;2023-06-22T05:08:34;18.42;78.71
73750;SHT30;62058;48.406;-4.514;2023-06-22T05:11:28;18.44;78.41
73750;SHT30;62058;48.406;-4.514;2023-06-22T05:13:55;18.44;79.51
73750;SHT30;62058;48.406;-4.514;2023-06-22T05:16:22;18.47;79.17
73750;SHT30;62058;48.406;-4.514;2023-06-22T05:18:56;18.44;79.74
73750;SHT30;62058;48.406;-4.514;2023-06-22T05:21:30;18.47;79.45
73750;SHT30;62058;48.406;-4.514;2023-06-22T05:27:47;18.63;79.63
73750;SHT30;62058;48.406;-4.514;2023-06-22T05:31:06;18.68;78.15
73750;SHT30;62058;48.406;-4.514;2023-06-22T05:37:36;18.80;78.45
73750;SHT30;62058;48.406;-4.514;2023-06-22T05:40:22;18.83;79.73
73750;SHT30;62058;48.406;-4.514;2023-06-22T05:42:58;18.82;78.82
73750;SHT30;62058;48.406;-4.514;2023-06-22T05:45:34;18.90;78.82
73750;SHT30;62058;48.406;-4.514;2023-06-22T05:48:02;18.95;78.61
73750;SHT30;62058;48.406;-4.514;2023-06-22T05:50:53;19.00;78.47
73750;SHT30;62058;48.406;-4.514;2023-06-22T05:53:41;18.99;78.62
73750;SHT30;62058;48.406;-4.514;2023-06-22T05:56:12;19.00;78.18
73750;SHT30;62058;48.406;-4.514;2023-06-22T05:58:40;18.98;78.20
73750;SHT30;62058;48.406;-4.514;2023-06-22T06:01:05;19.09;77.84
73750;SHT30;62058;48.406;-4.514;2023-06-22T06:03:30;19.17;78.69
73750;SHT30;62058;48.406;-4.514;2023-06-22T06:05:56;19.23;78.03
73750;SHT30;62058;48.406;-4.514;2023-06-22T06:08:21;19.30;77.38
73750;SHT30;62058;48.406;-4.514;2023-06-22T06:10:47;19.34;78.27
73750;SHT30;62058;48.406;-4.514;2023-06-22T06:13:12;19.37;78.51
73750;SHT30;62058;48.406;-4.514;2023-06-22T06:15:37;19.41;78.69
73750;SHT30;62058;48.406;-4.514;2023-06-22T06:18:04;19.43;78.74
73750;SHT30;62058;48.406;-4.514;2023-06-22T06:20:30;19.51;78.84
73750;SHT30;62058;48.406;-4.514;2023-06-22T06:22:56;19.64;77.88
73750;SHT30;62058;48.406;-4.514;2023-06-22T06:25:22;19.78;77.63
73750;SHT30;62058;48.406;-4.514;2023-06-22T06:27:50;19.89;78.22
73750;SHT30;62058;48.406;-4.514;2023-06-22T06:30:17;19.95;77.29
73750;SHT30;62058;48.406;-4.514;2023-06-22T06:32:44;19.99;77.42
73750;SHT30;62058;48.406;-4.514;2023-06-22T06:35:11;20.04;76.76
73750;SHT30;62058;48.406;-4.514;2023-06-22T06:37:38;20.02;78.80
73750;SHT30;62058;48.406;-4.514;2023-06-22T06:40:08;20.05;77.36
73750;SHT30;62058;48.406;-4.514;2023-06-22T06:42:38;20.16;77.54
73750;SHT30;62058;48.406;-4.514;2023-06-22T06:45:06;20.19;79.32
73750;SHT30;62058;48.406;-4.514;2023-06-22T06:47:32;20.21;77.55
73750;SHT30;62058;48.406;-4.514;2023-06-22T06:49:57;20.19;77.62
73750;SHT30;62058;48.406;-4.514;2023-06-22T06:52:22;20.18;77.54
73750;SHT30;62058;48.406;-4.514;2023-06-22T06:54:48;20.16;78.81
73750;SHT30;62058;48.406;-4.514;2023-06-22T06:57:13;20.21;78.13
73750;SHT30;62058;48.406;-4.514;2023-06-22T06:59:40;20.25;77.41
73750;SHT30;62058;48.406;-4.514;2023-06-22T07:02:06;20.26;77.31
73750;SHT30;62058;48.406;-4.514;2023-06-22T07:04:31;20.39;77.73
73750;SHT30;62058;48.406;-4.514;2023-06-22T07:06:58;20.49;77.22
73750;SHT30;62058;48.406;-4.514;2023-06-22T07:09:24;20.63;77.19
73750;SHT30;62058;48.406;-4.514;2023-06-22T07:11:49;20.84;76.76
73750;SHT30;62058;48.406;-4.514;2023-06-22T07:14:14;20.94;76.50
73750;SHT30;62058;48.406;-4.514;2023-06-22T07:16:40;21.14;75.92
73750;SHT30;62058;48.406;-4.514;2023-06-22T07:19:07;21.21;75.48
73750;SHT30;62058;48.406;-4.514;2023-06-22T07:21:32;21.31;75.33
73750;SHT30;62058;48.406;-4.514;2023-06-22T07:23:58;21.32;74.89
73750;SHT30;62058;48.406;-4.514;2023-06-22T07:26:23;21.37;74.71
73750;SHT30;62058;48.406;-4.514;2023-06-22T07:28:48;21.44;74.75
73750;SHT30;62058;48.406;-4.514;2023-06-22T07:31:15;21.58;74.53
73750;SHT30;62058;48.406;-4.514;2023-06-22T07:33:40;21.71;74.19
73750;SHT30;62058;48.406;-4.514;2023-06-22T07:36:06;21.81;74.18
73750;SHT30;62058;48.406;-4.514;2023-06-22T07:38:33;21.92;73.97
73750;SHT30;62058;48.406;-4.514;2023-06-22T07:41:00;22.01;73.20
73750;SHT30;62058;48.406;-4.514;2023-06-22T07:43:25;22.12;73.33
73750;SHT30;62058;48.406;-4.514;2023-06-22T07:45:50;22.30;73.07
73750;SHT30;62058;48.406;-4.514;2023-06-22T07:48:23;22.49;72.83
73750;SHT30;62058;48.406;-4.514;2023-06-22T07:50:48;22.74;72.51
73750;SHT30;62058;48.406;-4.514;2023-06-22T07:53:14;22.94;71.35
73750;SHT30;62058;48.406;-4.514;2023-06-22T07:55:39;23.00;70.31
73750;SHT30;62058;48.406;-4.514;2023-06-22T07:58:04;22.94;70.41
73750;SHT30;62058;48.406;-4.514;2023-06-22T08:00:30;22.81;69.98
73750;SHT30;62058;48.406;-4.514;2023-06-22T08:02:55;22.57;70.48
73750;SHT30;62058;48.406;-4.514;2023-06-22T08:05:21;22.42;70.45
73750;SHT30;62058;48.406;-4.514;2023-06-22T08:07:47;22.32;70.66
73750;SHT30;62058;48.406;-4.514;2023-06-22T08:10:12;22.28;70.92
73750;SHT30;62058;48.406;-4.514;2023-06-22T08:12:39;22.39;70.84
73750;SHT30;62058;48.406;-4.514;2023-06-22T08:15:05;22.56;70.82
73750;SHT30;62058;48.406;-4.514;2023-06-22T08:17:31;22.56;70.23
73750;SHT30;62058;48.406;-4.514;2023-06-22T08:19:56;22.40;69.58
73750;SHT30;62058;48.406;-4.514;2023-06-22T08:22:22;22.12;70.28
73750;SHT30;62058;48.406;-4.514;2023-06-22T08:24:47;21.92;70.46
73750;SHT30;62058;48.406;-4.514;2023-06-22T08:27:13;21.81;70.48
73750;SHT30;62058;48.406;-4.514;2023-06-22T08:29:40;21.78;70.82
73750;SHT30;62058;48.406;-4.514;2023-06-22T08:32:08;21.91;70.38
73750;SHT30;62058;48.406;-4.514;2023-06-22T08:34:34;22.08;70.38
73750;SHT30;62058;48.406;-4.514;2023-06-22T08:36:59;22.15;70.16
73750;SHT30;62058;48.406;-4.514;2023-06-22T08:39:25;22.30;70.04
73750;SHT30;62058;48.406;-4.514;2023-06-22T08:41:51;22.40;69.79
73750;SHT30;62058;48.406;-4.514;2023-06-22T08:44:18;22.59;69.35
73750;SHT30;62058;48.406;-4.514;2023-06-22T08:46:43;22.78;69.08
73750;SHT30;62058;48.406;-4.514;2023-06-22T08:49:09;23.07;68.84
73750;SHT30;62058;48.406;-4.514;2023-06-22T08:51:35;23.37;68.69
73750;SHT30;62058;48.406;-4.514;2023-06-22T08:54:01;23.45;68.10
73750;SHT30;62058;48.406;-4.514;2023-06-22T08:56:26;23.39;66.22
73750;SHT30;62058;48.406;-4.514;2023-06-22T08:58:51;23.34;66.25
73750;SHT30;62058;48.406;-4.514;2023-06-22T09:01:17;23.59;66.49
73750;SHT30;62058;48.406;-4.514;2023-06-22T09:03:42;23.75;66.17
73750;SHT30;62058;48.406;-4.514;2023-06-22T09:06:08;23.83;65.25
73750;SHT30;62058;48.406;-4.514;2023-06-22T09:08:35;23.85;64.95
73750;SHT30;62058;48.406;-4.514;2023-06-22T09:11:01;23.80;64.89
73750;SHT30;62058;48.406;-4.514;2023-06-22T09:13:29;23.83;64.67
73750;SHT30;62058;48.406;-4.514;2023-06-22T09:15:55;23.90;65.11
73750;SHT30;62058;48.406;-4.514;2023-06-22T09:18:20;23.93;64.98
73750;SHT30;62058;48.406;-4.514;2023-06-22T09:20:46;23.89;65.14
73750;SHT30;62058;48.406;-4.514;2023-06-22T09:23:12;23.73;65.31
73750;SHT30;62058;48.406;-4.514;2023-06-22T09:25:38;23.58;65.33
73750;SHT30;62058;48.406;-4.514;2023-06-22T09:28:03;23.38;65.10
73750;SHT30;62058;48.406;-4.514;2023-06-22T09:30:29;23.19;64.57
73750;SHT30;62058;48.406;-4.514;2023-06-22T09:32:54;23.14;65.07
73750;SHT30;62058;48.406;-4.514;2023-06-22T09:35:19;23.12;65.33
73750;SHT30;62058;48.406;-4.514;2023-06-22T09:37:45;23.17;65.61
73750;SHT30;62058;48.406;-4.514;2023-06-22T09:40:11;23.24;65.48
73750;SHT30;62058;48.406;-4.514;2023-06-22T09:42:38;23.31;65.43
73750;SHT30;62058;48.406;-4.514;2023-06-22T09:45:05;23.34;65.45
73750;SHT30;62058;48.406;-4.514;2023-06-22T09:47:31;23.38;65.30
73750;SHT30;62058;48.406;-4.514;2023-06-22T09:49:56;23.44;65.56
73750;SHT30;62058;48.406;-4.514;2023-06-22T09:52:24;23.62;65.76
73750;SHT30;62058;48.406;-4.514;2023-06-22T09:54:49;23.78;64.78
73750;SHT30;62058;48.406;-4.514;2023-06-22T09:57:14;23.79;64.77
73750;SHT30;62058;48.406;-4.514;2023-06-22T09:59:41;23.73;64.70
73750;SHT30;62058;48.406;-4.514;2023-06-22T10:02:07;23.70;65.10
73750;SHT30;62058;48.406;-4.514;2023-06-22T10:04:33;23.69;64.88
73750;SHT30;62058;48.406;-4.514;2023-06-22T10:07:01;23.69;64.00
73750;SHT30;62058;48.406;-4.514;2023-06-22T10:09:27;23.80;64.52
73750;SHT30;62058;48.406;-4.514;2023-06-22T10:11:52;23.98;64.01
73750;SHT30;62058;48.406;-4.514;2023-06-22T10:14:17;24.02;63.32
73750;SHT30;62058;48.406;-4.514;2023-06-22T10:16:43;23.98;63.50
73750;SHT30;62058;48.406;-4.514;2023-06-22T10:19:08;24.05;63.74
73750;SHT30;62058;48.406;-4.514;2023-06-22T10:21:34;24.03;63.46
73750;SHT30;62058;48.406;-4.514;2023-06-22T10:23:59;23.90;63.03
73750;SHT30;62058;48.406;-4.514;2023-06-22T10:26:33;23.88;62.69
73750;SHT30;62058;48.406;-4.514;2023-06-22T10:28:59;23.80;63.22
73750;SHT30;62058;48.406;-4.514;2023-06-22T10:31:25;23.76;63.16
73750;SHT30;62058;48.406;-4.514;2023-06-22T10:33:50;23.76;63.67
73750;SHT30;62058;48.406;-4.514;2023-06-22T10:36:16;23.75;63.57
73750;SHT30;62058;48.406;-4.514;2023-06-22T10:38:41;23.70;63.04
73750;SHT30;62058;48.406;-4.514;2023-06-22T10:41:06;23.78;63.12
73750;SHT30;62058;48.406;-4.514;2023-06-22T10:43:32;23.79;63.48
73750;SHT30;62058;48.406;-4.514;2023-06-22T10:45:57;23.73;63.57
73750;SHT30;62058;48.406;-4.514;2023-06-22T10:48:23;23.76;63.58
73750;SHT30;62058;48.406;-4.514;2023-06-22T10:50:48;23.89;62.24
73750;SHT30;62058;48.406;-4.514;2023-06-22T10:53:14;24.08;62.38
73750;SHT30;62058;48.406;-4.514;2023-06-22T10:55:39;24.21;61.99
73750;SHT30;62058;48.406;-4.514;2023-06-22T10:58:04;24.39;61.96
73750;SHT30;62058;48.406;-4.514;2023-06-22T11:00:30;24.40;61.78
73750;SHT30;62058;48.406;-4.514;2023-06-22T11:02:55;24.47;62.10
73750;SHT30;62058;48.406;-4.514;2023-06-22T11:05:20;24.64;61.28
73750;SHT30;62058;48.406;-4.514;2023-06-22T11:07:46;24.77;61.36
73750;SHT30;62058;48.406;-4.514;2023-06-22T11:10:12;24.92;61.54
73750;SHT30;62058;48.406;-4.514;2023-06-22T11:12:38;25.04;60.54
73750;SHT30;62058;48.406;-4.514;2023-06-22T11:15:04;25.32;60.60
73750;SHT30;62058;48.406;-4.514;2023-06-22T11:17:29;25.47;59.29
73750;SHT30;62058;48.406;-4.514;2023-06-22T11:19:55;25.63;59.15
73750;SHT30;62058;48.406;-4.514;2023-06-22T11:22:20;25.62;59.09
73750;SHT30;62058;48.406;-4.514;2023-06-22T11:24:45;25.67;59.46
73750;SHT30;62058;48.406;-4.514;2023-06-22T11:27:11;25.80;59.30
73750;SHT30;62058;48.406;-4.514;2023-06-22T11:29:36;25.87;57.74
73750;SHT30;62058;48.406;-4.514;2023-06-22T11:32:04;25.85;58.47
73750;SHT30;62058;48.406;-4.514;2023-06-22T11:34:29;25.72;58.28
73750;SHT30;62058;48.406;-4.514;2023-06-22T11:36:55;25.41;59.21
73750;SHT30;62058;48.406;-4.514;2023-06-22T11:39:20;25.12;58.85
73750;SHT30;62058;48.406;-4.514;2023-06-22T11:41:45;25.02;59.54
73750;SHT30;62058;48.406;-4.514;2023-06-22T11:44:11;24.90;59.70
73750;SHT30;62058;48.406;-4.514;2023-06-22T11:46:36;24.80;60.31
73750;SHT30;62058;48.406;-4.514;2023-06-22T11:49:02;24.72;60.45
73750;SHT30;62058;48.406;-4.514;2023-06-22T11:51:27;24.71;60.50
73750;SHT30;62058;48.406;-4.514;2023-06-22T11:53:53;24.78;60.87
73750;SHT30;62058;48.406;-4.514;2023-06-22T11:56:19;24.91;60.45
73750;SHT30;62058;48.406;-4.514;2023-06-22T11:58:44;25.07;59.67
73750;SHT30;62058;48.406;-4.514;2023-06-22T12:01:09;24.84;60.25
73750;SHT30;62058;48.406;-4.514;2023-06-22T12:03:35;24.96;60.01
73750;SHT30;62058;48.406;-4.514;2023-06-22T12:06:00;25.05;60.03
73750;SHT30;62058;48.406;-4.514;2023-06-22T12:08:26;25.38;59.53
73750;SHT30;62058;48.406;-4.514;2023-06-22T12:10:51;25.69;59.29
73750;SHT30;62058;48.406;-4.514;2023-06-22T12:13:17;25.93;58.56
73750;SHT30;62058;48.406;-4.514;2023-06-22T12:15:42;26.04;57.33
73750;SHT30;62058;48.406;-4.514;2023-06-22T12:18:08;26.03;57.10
73750;SHT30;62058;48.406;-4.514;2023-06-22T12:20:34;26.28;57.54
73750;SHT30;62058;48.406;-4.514;2023-06-22T12:22:59;26.74;57.39
73750;SHT30;62058;48.406;-4.514;2023-06-22T12:25:25;27.35;55.56
73750;SHT30;62058;48.406;-4.514;2023-06-22T12:27:50;27.66;55.05
73750;SHT30;62058;48.406;-4.514;2023-06-22T12:30:16;27.96;54.44
73750;SHT30;62058;48.406;-4.514;2023-06-22T12:32:41;28.37;53.12
73750;SHT30;62058;48.406;-4.514;2023-06-22T12:35:07;28.74;52.55
73750;SHT30;62058;48.406;-4.514;2023-06-22T12:37:37;29.23;52.09
73750;SHT30;62058;48.406;-4.514;2023-06-22T12:40:02;29.06;51.97
73750;SHT30;62058;48.406;-4.514;2023-06-22T12:42:29;28.64;52.57
73750;SHT30;62058;48.406;-4.514;2023-06-22T12:44:54;28.27;52.60
73750;SHT30;62058;48.406;-4.514;2023-06-22T12:47:19;28.27;51.77
73750;SHT30;62058;48.406;-4.514;2023-06-22T12:49:45;28.61;51.68
73750;SHT30;62058;48.406;-4.514;2023-06-22T12:52:11;29.15;51.14
73750;SHT30;62058;48.406;-4.514;2023-06-22T12:54:36;29.84;49.92
73750;SHT30;62058;48.406;-4.514;2023-06-22T12:57:02;30.45;50.00
73750;SHT30;62058;48.406;-4.514;2023-06-22T12:59:27;31.03;48.93
73750;SHT30;62058;48.406;-4.514;2023-06-22T13:01:53;31.41;47.31
73750;SHT30;62058;48.406;-4.514;2023-06-22T13:04:18;31.67;47.92
73750;SHT30;62058;48.406;-4.514;2023-06-22T13:06:47;31.86;46.66
73750;SHT30;62058;48.406;-4.514;2023-06-22T13:09:14;31.57;46.13
73750;SHT30;62058;48.406;-4.514;2023-06-22T13:11:40;31.37;46.38
73750;SHT30;62058;48.406;-4.514;2023-06-22T13:14:05;31.00;46.91
73750;SHT30;62058;48.406;-4.514;2023-06-22T13:16:31;31.41;48.00
73750;SHT30;62058;48.406;-4.514;2023-06-22T13:18:56;31.78;45.96
73750;SHT30;62058;48.406;-4.514;2023-06-22T13:21:21;31.92;46.23
73750;SHT30;62058;48.406;-4.514;2023-06-22T13:23:47;32.40;47.36
73750;SHT30;62058;48.406;-4.514;2023-06-22T13:26:12;32.97;46.18
73750;SHT30;62058;48.406;-4.514;2023-06-22T13:28:38;33.50;45.52
73750;SHT30;62058;48.406;-4.514;2023-06-22T13:31:03;34.01;44.74
73750;SHT30;62058;48.406;-4.514;2023-06-22T13:33:28;33.55;43.03
73750;SHT30;62058;48.406;-4.514;2023-06-22T13:35:54;33.38;43.25
73750;SHT30;62058;48.406;-4.514;2023-06-22T13:38:19;33.58;41.51
73750;SHT30;62058;48.406;-4.514;2023-06-22T13:40:45;33.85;42.14
73750;SHT30;62058;48.406;-4.514;2023-06-22T13:43:10;34.12;41.94
73750;SHT30;62058;48.406;-4.514;2023-06-22T13:45:36;34.57;42.01
73750;SHT30;62058;48.406;-4.514;2023-06-22T13:48:01;34.42;41.56
73750;SHT30;62058;48.406;-4.514;2023-06-22T13:50:27;34.35;41.33
73750;SHT30;62058;48.406;-4.514;2023-06-22T13:52:54;34.36;41.16
73750;SHT30;62058;48.406;-4.514;2023-06-22T13:55:19;34.72;42.11
73750;SHT30;62058;48.406;-4.514;2023-06-22T13:57:46;35.29;40.76
73750;SHT30;62058;48.406;-4.514;2023-06-22T14:00:12;35.75;41.22
73750;SHT30;62058;48.406;-4.514;2023-06-22T14:02:38;36.46;39.70
73750;SHT30;62058;48.406;-4.514;2023-06-22T14:05:04;37.11;38.33
73750;SHT30;62058;48.406;-4.514;2023-06-22T14:07:31;36.86;36.82
73750;SHT30;62058;48.406;-4.514;2023-06-22T14:09:56;37.26;37.48
73750;SHT30;62058;48.406;-4.514;2023-06-22T14:12:23;37.75;38.33
73750;SHT30;62058;48.406;-4.514;2023-06-22T14:14:48;38.26;37.44
73750;SHT30;62058;48.406;-4.514;2023-06-22T14:17:13;38.46;36.46
73750;SHT30;62058;48.406;-4.514;2023-06-22T14:19:39;39.24;35.04
73750;SHT30;62058;48.406;-4.514;2023-06-22T14:22:04;39.86;35.02
73750;SHT30;62058;48.406;-4.514;2023-06-22T14:24:30;39.96;34.37
73750;SHT30;62058;48.406;-4.514;2023-06-22T14:26:55;40.19;34.32
73750;SHT30;62058;48.406;-4.514;2023-06-22T14:29:21;39.43;34.56
73750;SHT30;62058;48.406;-4.514;2023-06-22T14:31:47;38.02;36.43
73750;SHT30;62058;48.406;-4.514;2023-06-22T14:34:13;38.23;35.42
73750;SHT30;62058;48.406;-4.514;2023-06-22T14:36:38;38.46;35.51
73750;SHT30;62058;48.406;-4.514;2023-06-22T14:39:04;38.94;35.53
73750;SHT30;62058;48.406;-4.514;2023-06-22T14:41:30;39.11;34.98
73750;SHT30;62058;48.406;-4.514;2023-06-22T14:43:55;39.06;35.94
73750;SHT30;62058;48.406;-4.514;2023-06-22T14:46:21;39.51;35.67
73750;SHT30;62058;48.406;-4.514;2023-06-22T14:48:46;40.12;33.58
73750;SHT30;62058;48.406;-4.514;2023-06-22T14:51:12;40.20;33.64
73750;SHT30;62058;48.406;-4.514;2023-06-22T14:53:37;39.96;34.50
73750;SHT30;62058;48.406;-4.514;2023-06-22T14:56:03;40.77;34.28
73750;SHT30;62058;48.406;-4.514;2023-06-22T14:58:33;41.47;33.32
73750;SHT30;62058;48.406;-4.514;2023-06-22T15:01:02;41.61;32.60
73750;SHT30;62058;48.406;-4.514;2023-06-22T15:03:29;42.09;32.40
73750;SHT30;62058;48.406;-4.514;2023-06-22T15:05:56;42.73;32.90
73750;SHT30;62058;48.406;-4.514;2023-06-22T15:08:22;42.25;31.66
73750;SHT30;62058;48.406;-4.514;2023-06-22T15:10:47;42.03;32.89
73750;SHT30;62058;48.406;-4.514;2023-06-22T15:13:12;42.60;32.02
73750;SHT30;62058;48.406;-4.514;2023-06-22T15:15:38;43.26;31.98
73750;SHT30;62058;48.406;-4.514;2023-06-22T15:18:03;43.86;29.92
73750;SHT30;62058;48.406;-4.514;2023-06-22T15:20:29;44.46;30.97
73750;SHT30;62058;48.406;-4.514;2023-06-22T15:22:56;44.41;30.98
73750;SHT30;62058;48.406;-4.514;2023-06-22T15:25:22;45.11;30.36
73750;SHT30;62058;48.406;-4.514;2023-06-22T15:27:47;45.75;30.40
73750;SHT30;62058;48.406;-4.514;2023-06-22T15:30:12;45.88;28.64
73750;SHT30;62058;48.406;-4.514;2023-06-22T15:32:38;44.62;29.36
73750;SHT30;62058;48.406;-4.514;2023-06-22T15:35:03;44.70;29.71
73750;SHT30;62058;48.406;-4.514;2023-06-22T15:37:29;43.25;31.19